createdAt,value
2019-04-23T00:01:29.917Z,6.90
2019-04-23T00:04:03.220Z,6.58
2019-04-23T00:06:47.758Z,6.35
2019-04-23T00:09:09.201Z,6.60
2019-04-23T00:11:32.440Z,5.90
2019-04-23T00:14:08.456Z,6.47
2019-04-23T00:16:30.221Z,6.25
2019-04-23T00:18:59.013Z,5.70
2019-04-23T00:21:54.999Z,6.20
2019-04-23T00:25:09.722Z,6.40
2019-04-23T00:27:24.059Z,6.33
2019-04-23T00:29:48.376Z,5.62
2019-04-23T00:32:19.864Z,5.87
2019-04-23T00:34:47.693Z,6.35
2019-04-23T00:37:19.747Z,6.42
2019-04-23T00:39:51.191Z,6.03
2019-04-23T00:42:16.836Z,5.70
2019-04-23T00:44:47.566Z,5.80
2019-04-23T00:47:23.645Z,5.87
2019-04-23T00:49:51.634Z,6.03
2019-04-23T00:52:23.709Z,5.90
2019-04-23T00:54:55.203Z,5.97
2019-04-23T00:59:53.857Z,5.50
2019-04-23T01:02:16.638Z,5.47
2019-04-23T01:04:47.713Z,5.67
2019-04-23T01:07:18.779Z,5.42
2019-04-23T01:12:31.722Z,5.00
2019-04-23T01:14:55.186Z,5.50
2019-04-23T01:17:35.191Z,5.35
2019-04-23T01:19:54.837Z,5.72
2019-04-23T01:22:12.600Z,4.92
2019-04-23T01:24:50.849Z,5.55
2019-04-23T01:28:04.316Z,5.28
2019-04-23T01:30:38.191Z,5.10
2019-04-23T01:32:48.473Z,4.83
2019-04-23T01:35:20.459Z,5.33
2019-04-23T01:37:46.651Z,4.58
2019-04-23T01:40:27.377Z,5.47
2019-04-23T01:42:49.324Z,5.53
2019-04-23T01:55:28.030Z,5.00
2019-04-23T01:58:05.807Z,5.08
2019-04-23T02:00:30.366Z,5.28
2019-04-23T02:03:04.390Z,5.33
2019-04-23T02:07:58.403Z,5.28
2019-04-23T02:13:08.146Z,5.58
2019-04-23T02:15:34.627Z,5.25
2019-04-23T02:18:05.258Z,5.22
2019-04-23T02:20:39.321Z,5.53
2019-04-23T02:23:11.617Z,5.78
2019-04-23T02:25:44.328Z,4.92
2019-04-23T02:28:11.881Z,5.30
2019-04-23T02:30:59.900Z,6.08
2019-04-23T02:33:29.553Z,5.50
2019-04-23T02:38:18.851Z,5.30
2019-04-23T02:41:04.747Z,5.65
2019-04-23T02:43:16.847Z,5.62
2019-04-23T02:46:02.310Z,5.50
2019-04-23T03:01:22.409Z,5.50
2019-04-23T03:05:57.706Z,5.53
2019-04-23T03:08:26.825Z,5.62
2019-04-23T03:11:07.406Z,5.78
2019-04-23T03:16:22.330Z,5.20
2019-04-23T03:18:46.091Z,5.42
2019-04-23T03:23:49.613Z,5.33
2019-04-23T03:26:43.410Z,5.42
2019-04-23T03:29:04.261Z,5.80
2019-04-23T03:36:24.888Z,5.20
2019-04-23T03:39:13.940Z,5.55
2019-04-23T03:46:34.119Z,5.30
2019-04-23T03:48:57.082Z,5.30
2019-04-23T03:51:38.389Z,5.30
2019-04-23T03:54:24.423Z,5.15
2019-04-23T03:56:50.008Z,5.20
2019-04-23T03:59:27.164Z,4.90
2019-04-23T04:01:34.752Z,6.00
2019-04-23T04:09:17.316Z,5.47
2019-04-23T04:11:49.749Z,5.33
2019-04-23T04:14:32.079Z,5.90
2019-04-23T04:16:45.021Z,5.55
2019-04-23T04:19:18.340Z,5.70
2019-04-23T04:29:11.531Z,6.60
2019-04-23T04:39:08.067Z,5.75
2019-04-23T04:41:55.529Z,6.42
2019-04-23T04:44:27.244Z,5.60
2019-04-23T04:46:45.813Z,5.37
2019-04-23T04:49:21.406Z,5.05
2019-04-23T04:54:19.248Z,5.78
2019-04-23T04:56:43.044Z,5.30
2019-04-23T04:59:18.146Z,5.62
2019-04-23T05:01:52.236Z,5.75
2019-04-23T05:04:22.760Z,4.87
2019-04-23T05:09:43.840Z,5.35
2019-04-23T05:11:52.269Z,5.28
2019-04-23T05:14:23.535Z,4.97
2019-04-23T05:16:50.605Z,5.00
2019-04-23T05:19:29.791Z,6.55
2019-04-23T05:21:55.561Z,5.58
2019-04-23T05:26:51.670Z,5.50
2019-04-23T05:29:21.657Z,5.45
2019-04-23T05:31:48.392Z,4.90
2019-04-23T05:36:58.381Z,5.67
2019-04-23T05:39:30.938Z,4.67
2019-04-23T05:42:05.712Z,4.70
2019-04-23T05:44:29.963Z,5.50
2019-04-23T05:46:57.685Z,5.45
2019-04-23T05:49:24.800Z,4.80
2019-04-23T05:51:55.066Z,4.80
2019-04-23T05:54:26.593Z,5.92
2019-04-23T05:56:55.393Z,5.20
2019-04-23T05:59:26.221Z,4.80
2019-04-23T06:04:32.689Z,5.25
2019-04-23T06:14:33.930Z,4.87
2019-04-23T06:17:11.171Z,4.62
2019-04-23T06:19:24.619Z,5.35
2019-04-23T06:27:06.914Z,4.78
2019-04-23T06:29:51.543Z,5.30
2019-04-23T06:32:02.769Z,4.97
2019-04-23T06:34:36.374Z,4.75
2019-04-23T06:42:08.432Z,4.95
2019-04-23T06:45:01.249Z,4.33
2019-04-23T06:49:51.508Z,4.97
2019-04-23T06:55:12.212Z,4.90
2019-04-23T06:57:22.450Z,4.40
2019-04-23T06:59:55.101Z,4.70
2019-04-23T07:02:25.879Z,4.58
2019-04-23T07:10:10.054Z,4.20
2019-04-23T07:12:45.945Z,5.53
2019-04-23T07:15:02.444Z,5.47
2019-04-23T07:17:26.612Z,5.15
2019-04-23T07:20:00.290Z,6.70
2019-04-23T07:22:28.692Z,9.20
2019-04-23T07:25:00.322Z,10.32
2019-04-23T07:27:30.003Z,6.50
2019-04-23T07:32:31.314Z,4.47
2019-04-23T07:37:58.507Z,4.97
2019-04-23T07:48:06.242Z,4.62
2019-04-23T07:53:17.057Z,4.40
2019-04-23T07:58:17.339Z,4.67
2019-04-23T08:03:17.725Z,5.00
2019-04-23T08:05:49.100Z,4.58
2019-04-23T08:08:06.738Z,4.55
2019-04-23T08:10:47.142Z,5.05
2019-04-23T08:13:16.172Z,4.35
2019-04-23T08:15:41.449Z,4.25
2019-04-23T08:18:13.577Z,4.55
2019-04-23T08:21:02.435Z,4.35
2019-04-23T08:23:30.511Z,4.58
2019-04-23T08:26:21.420Z,4.25
2019-04-23T08:28:59.144Z,4.83
2019-04-23T08:31:16.468Z,4.28
2019-04-23T08:33:53.077Z,5.28
2019-04-23T08:36:21.244Z,5.30
2019-04-23T08:38:43.584Z,4.85
2019-04-23T08:44:18.357Z,4.72
2019-04-23T08:46:51.004Z,4.67
2019-04-23T08:49:22.628Z,5.17
2019-04-23T08:54:34.748Z,5.05
2019-04-23T08:56:55.162Z,4.45
2019-04-23T08:59:25.191Z,5.80
2019-04-23T09:02:07.178Z,5.00
2019-04-23T09:04:26.676Z,4.90
2019-04-23T09:06:53.388Z,4.70
2019-04-23T09:09:30.822Z,4.92
2019-04-23T09:14:08.957Z,4.75
2019-04-23T09:16:58.150Z,4.90
2019-04-23T09:19:32.294Z,4.53
2019-04-23T09:22:00.551Z,4.62
2019-04-23T09:24:27.202Z,4.20
2019-04-23T09:27:01.944Z,4.78
2019-04-23T09:29:31.847Z,5.03
2019-04-23T09:32:22.408Z,4.37
2019-04-23T09:35:02.292Z,4.60
2019-04-23T09:40:20.406Z,4.67
2019-04-23T09:43:08.837Z,6.80
2019-04-23T09:45:26.918Z,4.80
2019-04-23T09:50:50.913Z,5.47
2019-04-23T09:53:09.606Z,4.95
2019-04-23T09:55:40.351Z,4.60
2019-04-23T10:00:45.526Z,4.50
2019-04-23T10:03:00.010Z,5.28
2019-04-23T10:05:27.577Z,5.58
2019-04-23T10:07:51.934Z,4.87
2019-04-23T10:10:14.362Z,5.30
2019-04-23T10:12:44.062Z,5.00
2019-04-23T10:15:20.472Z,5.78
2019-04-23T10:17:44.496Z,5.45
2019-04-23T10:20:13.869Z,5.28
2019-04-23T10:22:44.159Z,4.78
2019-04-23T10:25:15.094Z,5.08
2019-04-23T10:27:45.383Z,5.28
2019-04-23T10:30:15.815Z,5.03
2019-04-23T10:32:45.336Z,5.53
2019-04-23T10:35:22.150Z,4.97
2019-04-23T10:37:53.976Z,5.03
2019-04-23T10:40:23.224Z,5.60
2019-04-23T10:42:48.417Z,5.40
2019-04-23T10:45:36.987Z,6.35
2019-04-23T10:48:30.910Z,6.00
2019-04-23T10:50:59.590Z,5.55
2019-04-23T10:53:38.351Z,5.70
2019-04-23T10:56:01.014Z,5.53
2019-04-23T11:06:13.031Z,5.53
2019-04-23T11:11:09.385Z,5.85
2019-04-23T11:13:53.366Z,6.08
2019-04-23T11:18:52.068Z,6.42
2019-04-23T11:21:13.994Z,5.65
2019-04-23T11:23:40.905Z,6.10
2019-04-23T11:26:17.431Z,6.25
2019-04-23T11:28:38.157Z,5.80
2019-04-23T11:31:23.806Z,5.95
2019-04-23T11:33:52.316Z,6.17
2019-04-23T11:39:00.554Z,5.62
2019-04-23T11:41:26.414Z,6.28
2019-04-23T11:43:50.746Z,5.62
2019-04-23T11:46:39.994Z,7.77
2019-04-23T11:49:13.573Z,5.55
2019-04-23T11:53:55.883Z,5.65
2019-04-23T11:56:35.510Z,5.97
2019-04-23T11:58:55.680Z,5.85
2019-04-23T12:01:46.425Z,6.08
2019-04-23T12:06:55.923Z,5.70
2019-04-23T12:14:50.907Z,5.67
2019-04-23T12:17:33.057Z,6.15
2019-04-23T12:19:55.811Z,5.92
2019-04-23T12:22:22.224Z,5.55
2019-04-23T12:29:57.458Z,6.20
2019-04-23T12:40:15.721Z,5.62
2019-04-23T12:45:20.611Z,7.03
2019-04-23T12:47:52.850Z,6.25
2019-04-23T12:52:47.219Z,6.40
2019-04-23T12:55:31.892Z,6.87
2019-04-23T12:57:46.686Z,7.35
2019-04-23T13:00:20.601Z,6.45
2019-04-23T13:05:21.386Z,6.50
2019-04-23T13:07:54.076Z,6.87
2019-04-23T13:10:22.578Z,6.97
2019-04-23T13:15:22.518Z,7.00
2019-04-23T13:20:23.653Z,7.28
2019-04-23T13:25:27.252Z,7.33
2019-04-23T13:30:44.774Z,7.70
2019-04-23T13:33:08.186Z,6.55
2019-04-23T13:35:48.715Z,6.87
2019-04-23T13:38:10.617Z,7.20
2019-04-23T13:43:14.970Z,6.80
2019-04-23T13:45:53.134Z,6.58
2019-04-23T13:48:06.255Z,6.28
2019-04-23T13:50:43.239Z,5.95
2019-04-23T13:55:34.655Z,6.40
2019-04-23T14:01:01.218Z,5.70
2019-04-23T14:03:09.660Z,7.33
2019-04-23T14:05:41.630Z,7.72
2019-04-23T14:10:48.118Z,7.72
2019-04-23T14:15:53.607Z,7.42
2019-04-23T14:20:51.238Z,7.83
2019-04-23T14:23:27.703Z,7.35
2019-04-23T14:26:00.360Z,8.13
2019-04-23T14:28:28.878Z,9.03
2019-04-23T14:30:53.466Z,8.20
2019-04-23T14:33:24.923Z,8.58
2019-04-23T14:35:54.109Z,7.60
2019-04-23T14:41:07.829Z,8.15
2019-04-23T14:43:21.918Z,7.87
2019-04-23T14:46:34.836Z,7.85
2019-04-23T14:51:25.720Z,7.53
2019-04-23T14:56:16.198Z,8.08
2019-04-23T15:03:46.712Z,8.03
2019-04-23T15:11:26.397Z,8.05
2019-04-23T15:13:49.388Z,7.83
2019-04-23T15:16:30.803Z,7.15
2019-04-23T15:28:40.807Z,8.48
2019-04-23T15:31:33.603Z,7.90
2019-04-23T15:34:08.364Z,8.18
2019-04-23T15:39:11.804Z,7.62
2019-04-23T15:41:43.846Z,7.28
2019-04-23T15:44:10.444Z,8.03
2019-04-23T15:49:14.728Z,7.22
2019-04-23T15:51:48.819Z,7.12
2019-04-23T15:54:14.441Z,7.97
2019-04-23T15:56:40.952Z,6.72
2019-04-23T16:01:37.058Z,6.95
2019-04-23T16:03:46.958Z,7.17
2019-04-23T16:06:19.017Z,7.45
2019-04-23T16:09:14.413Z,6.95
2019-04-23T16:11:43.994Z,8.70
2019-04-23T16:16:46.302Z,6.60
2019-04-23T16:19:18.948Z,7.08
2019-04-23T16:24:17.965Z,6.72
2019-04-23T16:31:46.872Z,6.87
2019-04-23T16:34:25.654Z,6.97
2019-04-23T16:36:54.760Z,6.75
2019-04-23T16:39:21.992Z,6.60
2019-04-23T16:42:05.782Z,6.33
2019-04-23T16:44:38.441Z,6.53
2019-04-23T16:47:02.621Z,6.67
2019-04-23T16:49:51.151Z,6.55
2019-04-23T16:52:03.642Z,5.97
2019-04-23T16:57:24.447Z,6.45
2019-04-23T16:59:35.261Z,6.53
2019-04-23T17:02:18.205Z,7.10
2019-04-23T17:04:38.980Z,7.50
2019-04-23T17:07:08.406Z,7.00
2019-04-23T17:09:51.246Z,9.90
2019-04-23T17:12:12.447Z,7.47
2019-04-23T17:14:44.214Z,7.70
2019-04-23T17:17:06.492Z,7.58
2019-04-23T17:19:48.488Z,8.30
2019-04-23T17:22:11.077Z,8.08
2019-04-23T17:24:40.454Z,7.90
2019-04-23T17:27:16.850Z,7.87
2019-04-23T17:29:41.897Z,8.00
2019-04-23T17:32:09.982Z,7.15
2019-04-23T17:34:57.265Z,7.33
2019-04-23T17:37:26.889Z,8.25
2019-04-23T17:40:15.443Z,7.80
2019-04-23T17:42:41.050Z,7.90
2019-04-23T17:45:31.302Z,7.60
2019-04-23T17:52:51.049Z,8.40
2019-04-23T17:55:15.556Z,8.10
2019-04-23T18:00:25.711Z,10.15
2019-04-23T18:05:16.318Z,9.18
2019-04-23T18:10:27.471Z,9.08
2019-04-23T18:12:51.684Z,7.90
2019-04-23T18:15:24.522Z,7.55
2019-04-23T18:17:57.101Z,7.15
2019-04-23T18:20:55.979Z,6.75
2019-04-23T18:23:10.152Z,7.00
2019-04-23T18:25:45.779Z,7.30
2019-04-23T18:28:10.369Z,7.62
2019-04-23T18:31:09.635Z,9.58
2019-04-23T18:36:12.956Z,7.15
2019-04-23T18:38:53.022Z,6.67
2019-04-23T18:41:12.195Z,6.42
2019-04-23T18:44:02.680Z,6.12
2019-04-23T18:46:33.480Z,5.55
2019-04-23T18:48:52.858Z,4.92
2019-04-23T18:51:36.620Z,5.08
2019-04-23T18:53:59.260Z,4.78
2019-04-23T18:56:59.661Z,6.20
2019-04-23T18:59:11.024Z,5.15
2019-04-23T19:01:53.803Z,5.35
2019-04-23T19:04:33.614Z,4.70
2019-04-23T19:06:38.179Z,4.90
2019-04-23T19:09:32.292Z,5.42
2019-04-23T19:12:05.010Z,4.90
2019-04-23T19:14:38.957Z,5.17
2019-04-23T19:19:44.126Z,5.60
2019-04-23T19:24:37.413Z,5.17
2019-04-23T19:29:48.971Z,5.67
2019-04-23T19:32:06.280Z,5.25
2019-04-23T19:34:42.287Z,5.10
2019-04-23T19:37:30.327Z,5.05
2019-04-23T19:39:48.434Z,4.90
2019-04-23T19:42:20.125Z,4.83
2019-04-23T19:44:47.669Z,5.37
2019-04-23T19:47:30.897Z,5.17
2019-04-23T19:49:50.758Z,5.17
2019-04-23T19:52:20.456Z,4.72
2019-04-23T19:54:55.022Z,4.20
2019-04-23T19:57:22.273Z,4.75
2019-04-23T20:02:33.820Z,5.03
2019-04-23T20:04:55.746Z,4.83
2019-04-23T20:07:43.798Z,4.85
2019-04-23T20:09:51.681Z,4.70
2019-04-23T20:12:33.434Z,4.60
2019-04-23T20:14:58.119Z,4.55
2019-04-23T20:17:39.681Z,4.85
2019-04-23T20:20:19.799Z,4.53
2019-04-23T20:25:20.698Z,4.67
2019-04-23T20:27:33.728Z,5.03
2019-04-23T20:31:33.488Z,4.33
2019-04-23T20:35:16.540Z,4.53
2019-04-23T20:40:27.947Z,4.90
2019-04-23T20:42:47.043Z,5.12
2019-04-23T20:47:51.382Z,4.55
2019-04-23T20:50:10.475Z,5.10
2019-04-23T20:52:46.623Z,4.45
2019-04-23T20:55:47.084Z,5.10
2019-04-23T21:00:25.768Z,4.47
2019-04-23T21:05:22.652Z,4.50
2019-04-23T21:10:37.084Z,5.25
2019-04-23T21:15:43.901Z,5.05
2019-04-23T21:20:36.977Z,6.17
2019-04-23T21:23:09.498Z,5.58
2019-04-23T21:25:43.997Z,5.80
2019-04-23T21:28:11.534Z,5.30
2019-04-23T21:31:02.189Z,5.80
2019-04-23T21:33:25.935Z,6.05
2019-04-23T21:41:33.277Z,6.33
2019-04-23T21:46:27.746Z,5.87
2019-04-23T21:49:14.596Z,6.12
2019-04-23T21:51:38.484Z,6.05
2019-04-23T22:09:10.445Z,6.78
2019-04-23T22:11:48.237Z,6.90
2019-04-23T22:19:10.991Z,9.43
2019-04-23T22:21:43.295Z,15.32
2019-04-23T22:24:12.448Z,18.75
2019-04-23T22:26:36.279Z,22.10
2019-04-23T22:29:14.337Z,19.52
2019-04-23T22:34:09.249Z,10.10
2019-04-23T22:36:43.674Z,9.43
2019-04-23T22:39:11.614Z,8.35
2019-04-23T22:41:41.687Z,7.12
2019-04-23T22:49:41.424Z,6.72
2019-04-23T22:52:06.295Z,7.55
2019-04-23T22:54:31.333Z,6.53
2019-04-23T22:59:37.881Z,6.37
2019-04-23T23:02:20.993Z,7.12
2019-04-23T23:04:40.157Z,6.87
2019-04-23T23:07:07.590Z,7.55
2019-04-23T23:09:43.924Z,7.70
2019-04-23T23:12:13.795Z,7.50
2019-04-23T23:14:43.401Z,6.85
2019-04-23T23:17:02.231Z,7.37
2019-04-23T23:27:10.330Z,6.72
2019-04-23T23:29:50.160Z,7.05
2019-04-23T23:32:16.324Z,7.35
2019-04-23T23:39:53.516Z,7.22
2019-04-23T23:47:14.728Z,8.50
2019-04-23T23:49:56.364Z,7.53
2019-04-23T23:52:16.173Z,8.38
2019-04-23T23:54:48.665Z,8.40
